createdAt,value
2019-04-07T00:02:01.117Z,97404.61
2019-04-07T00:04:31.080Z,97413.42
2019-04-07T00:06:58.824Z,97403.02
2019-04-07T00:09:26.129Z,97403.89
2019-04-07T00:11:54.165Z,97405.52
2019-04-07T00:14:21.461Z,97408.46
2019-04-07T00:16:50.599Z,97408.60
2019-04-07T00:19:18.126Z,97405.34
2019-04-07T00:21:46.029Z,97411.11
2019-04-07T00:24:13.644Z,97404.80
2019-04-07T00:26:41.621Z,97403.16
2019-04-07T00:29:09.743Z,97411.44
2019-04-07T00:31:37.372Z,97406.94
2019-04-07T00:34:05.290Z,97410.02
2019-04-07T00:36:34.080Z,97410.91
2019-04-07T00:39:01.562Z,97412.39
2019-04-07T00:41:40.277Z,97415.38
2019-04-07T00:44:09.785Z,97409.52
2019-04-07T00:46:37.143Z,97410.33
2019-04-07T00:49:04.265Z,97406.72
2019-04-07T00:51:33.337Z,97411.72
2019-04-07T00:54:00.684Z,97414.25
2019-04-07T00:56:28.475Z,97415.59
2019-04-07T00:58:56.397Z,97415.08
2019-04-07T01:01:24.447Z,97408.83
2019-04-07T01:03:51.517Z,97419.38
2019-04-07T01:06:18.765Z,97406.86
2019-04-07T01:08:47.847Z,97408.77
2019-04-07T01:11:14.835Z,97414.06
2019-04-07T01:13:42.728Z,97411.63
2019-04-07T01:16:09.829Z,97418.29
2019-04-07T01:18:37.115Z,97418.38
2019-04-07T01:21:04.815Z,97407.34
2019-04-07T01:23:32.470Z,97408.09
2019-04-07T01:25:59.609Z,97411.52
2019-04-07T01:28:27.483Z,97419.98
2019-04-07T01:30:54.587Z,97415.77
2019-04-07T01:33:21.797Z,97417.91
2019-04-07T01:35:50.277Z,97414.97
2019-04-07T01:38:17.892Z,97410.27
2019-04-07T01:40:46.738Z,97407.25
2019-04-07T01:43:21.711Z,97405.42
2019-04-07T01:46:07.072Z,97403.70
2019-04-07T01:48:42.224Z,97407.62
2019-04-07T01:51:23.709Z,97403.83
2019-04-07T01:54:02.107Z,97404.88
2019-04-07T01:56:32.643Z,97406.52
2019-04-07T01:59:02.573Z,97404.14
2019-04-07T02:01:48.134Z,97401.37
2019-04-07T02:04:14.956Z,97410.39
2019-04-07T02:07:00.826Z,97413.37
2019-04-07T02:09:58.620Z,97407.12
2019-04-07T02:12:28.925Z,97412.59
2019-04-07T02:14:57.773Z,97403.09
2019-04-07T02:17:40.597Z,97408.36
2019-04-07T02:20:36.095Z,97411.78
2019-04-07T02:23:06.340Z,97410.80
2019-04-07T02:25:36.160Z,97409.45
2019-04-07T02:28:12.185Z,97411.72
2019-04-07T02:30:48.055Z,97419.59
2019-04-07T02:33:24.329Z,97413.42
2019-04-07T02:35:54.439Z,97418.97
2019-04-07T02:38:27.471Z,97412.13
2019-04-07T02:40:59.888Z,97414.56
2019-04-07T02:43:27.668Z,97418.36
2019-04-07T02:46:13.076Z,97415.11
2019-04-07T02:48:43.378Z,97420.14
2019-04-07T02:51:15.751Z,97420.41
2019-04-07T02:54:02.424Z,97427.52
2019-04-07T02:56:38.288Z,97427.33
2019-04-07T02:59:10.239Z,97433.91
2019-04-07T03:01:48.482Z,97441.00
2019-04-07T03:04:26.809Z,97441.48
2019-04-07T03:06:56.815Z,97439.34
2019-04-07T03:09:44.529Z,97438.61
2019-04-07T03:12:26.140Z,97442.44
2019-04-07T03:14:59.261Z,97447.92
2019-04-07T03:17:41.588Z,97448.53
2019-04-07T03:20:15.336Z,97446.94
2019-04-07T03:23:02.162Z,97443.45
2019-04-07T03:25:36.853Z,97449.05
2019-04-07T03:28:08.814Z,97449.25
2019-04-07T03:30:40.495Z,97449.22
2019-04-07T03:33:13.384Z,97453.19
2019-04-07T03:35:56.762Z,97450.90
2019-04-07T03:38:42.872Z,97452.68
2019-04-07T03:41:14.134Z,97446.80
2019-04-07T03:43:46.453Z,97448.81
2019-04-07T03:46:16.053Z,97457.06
2019-04-07T03:48:48.067Z,97467.63
2019-04-07T03:51:28.802Z,97461.25
2019-04-07T03:54:03.481Z,97466.19
2019-04-07T03:56:43.578Z,97463.58
2019-04-07T03:59:33.296Z,97464.19
2019-04-07T04:02:18.531Z,97469.47
2019-04-07T04:04:47.358Z,97471.72
2019-04-07T04:07:27.585Z,97468.31
2019-04-07T04:09:47.607Z,97467.09
2019-04-07T04:12:17.416Z,97467.77
2019-04-07T04:14:48.715Z,97471.73
2019-04-07T04:17:16.459Z,97477.38
2019-04-07T04:19:44.023Z,97470.37
2019-04-07T04:22:14.137Z,97479.85
2019-04-07T04:24:42.185Z,97478.20
2019-04-07T04:27:09.225Z,97482.50
2019-04-07T04:29:37.390Z,97490.04
2019-04-07T04:32:04.429Z,97488.52
2019-04-07T04:34:31.869Z,97491.25
2019-04-07T04:37:00.086Z,97493.08
2019-04-07T04:39:27.288Z,97498.01
2019-04-07T04:41:54.323Z,97498.45
2019-04-07T04:44:22.459Z,97497.80
2019-04-07T04:46:49.405Z,97504.27
2019-04-07T04:49:16.978Z,97500.14
2019-04-07T04:51:44.537Z,97509.15
2019-04-07T04:54:12.516Z,97508.62
2019-04-07T04:56:39.886Z,97511.93
2019-04-07T04:59:07.437Z,97510.03
2019-04-07T05:01:36.083Z,97502.13
2019-04-07T05:04:03.936Z,97509.30
2019-04-07T05:06:31.273Z,97507.86
2019-04-07T05:08:58.260Z,97513.87
2019-04-07T05:11:25.028Z,97519.47
2019-04-07T05:13:52.847Z,97523.34
2019-04-07T05:16:19.918Z,97523.62
2019-04-07T05:18:47.064Z,97517.96
2019-04-07T05:21:13.963Z,97522.52
2019-04-07T05:23:41.298Z,97519.36
2019-04-07T05:26:08.508Z,97527.68
2019-04-07T05:28:36.995Z,97520.90
2019-04-07T05:31:05.618Z,97521.09
2019-04-07T05:33:32.691Z,97522.09
2019-04-07T05:35:59.641Z,97525.88
2019-04-07T05:38:26.536Z,97528.53
2019-04-07T05:40:54.095Z,97530.97
2019-04-07T05:43:21.480Z,97531.16
2019-04-07T05:45:48.986Z,97534.28
2019-04-07T05:48:18.532Z,97536.63
2019-04-07T05:50:44.949Z,97541.17
2019-04-07T05:53:14.772Z,97543.52
2019-04-07T05:55:41.720Z,97551.23
2019-04-07T05:58:08.826Z,97552.48
2019-04-07T06:00:37.146Z,97559.28
2019-04-07T06:03:07.842Z,97561.84
2019-04-07T06:05:33.452Z,97566.41
2019-04-07T06:08:18.722Z,97566.31
2019-04-07T06:10:30.570Z,97560.23
2019-04-07T06:12:57.445Z,97558.19
2019-04-07T06:15:24.730Z,97568.60
2019-04-07T06:17:52.210Z,97572.21
2019-04-07T06:20:19.374Z,97563.73
2019-04-07T06:22:46.973Z,97564.67
2019-04-07T06:25:14.627Z,97557.30
2019-04-07T06:27:44.927Z,97558.89
2019-04-07T06:30:13.084Z,97563.86
2019-04-07T06:32:40.808Z,97559.22
2019-04-07T06:35:12.320Z,97568.75
2019-04-07T06:37:38.715Z,97558.66
2019-04-07T06:40:07.019Z,97561.59
2019-04-07T06:42:34.317Z,97564.92
2019-04-07T06:45:06.501Z,97567.55
2019-04-07T06:47:42.205Z,97566.20
2019-04-07T06:50:14.201Z,97565.24
2019-04-07T06:52:53.147Z,97563.64
2019-04-07T06:55:44.927Z,97565.17
2019-04-07T06:58:14.413Z,97565.12
2019-04-07T07:00:53.606Z,97562.25
2019-04-07T07:03:29.409Z,97558.59
2019-04-07T07:06:18.395Z,97560.35
2019-04-07T07:08:48.664Z,97558.57
2019-04-07T07:11:34.354Z,97559.52
2019-04-07T07:14:31.404Z,97564.23
2019-04-07T07:16:51.069Z,97554.13
2019-04-07T07:19:39.159Z,97559.08
2019-04-07T07:22:20.374Z,97560.55
2019-04-07T07:24:49.123Z,97553.16
2019-04-07T07:27:17.647Z,97553.16
2019-04-07T07:29:45.842Z,97556.70
2019-04-07T07:32:15.926Z,97549.95
2019-04-07T07:34:43.941Z,97553.14
2019-04-07T07:37:11.699Z,97557.13
2019-04-07T07:39:42.596Z,97561.41
2019-04-07T07:42:09.402Z,97559.20
2019-04-07T07:44:38.512Z,97560.32
2019-04-07T07:47:06.896Z,97562.25
2019-04-07T07:49:37.078Z,97559.02
2019-04-07T07:52:04.027Z,97560.22
2019-04-07T07:54:31.622Z,97566.02
2019-04-07T07:56:59.115Z,97569.86
2019-04-07T07:59:26.298Z,97571.27
2019-04-07T08:01:56.250Z,97578.47
2019-04-07T08:04:26.415Z,97577.95
2019-04-07T08:06:54.415Z,97578.83
2019-04-07T08:09:24.961Z,97575.16
2019-04-07T08:11:52.623Z,97577.83
2019-04-07T08:14:19.917Z,97576.63
2019-04-07T08:16:46.802Z,97577.43
2019-04-07T08:19:14.530Z,97576.92
2019-04-07T08:21:43.659Z,97575.45
2019-04-07T08:24:11.311Z,97578.84
2019-04-07T08:26:39.339Z,97577.80
2019-04-07T08:29:07.754Z,97576.03
2019-04-07T08:31:35.261Z,97570.52
2019-04-07T08:34:03.751Z,97566.83
2019-04-07T08:36:31.374Z,97575.19
2019-04-07T08:38:59.489Z,97570.14
2019-04-07T08:41:26.719Z,97579.48
2019-04-07T08:43:56.654Z,97577.02
2019-04-07T08:46:25.163Z,97573.43
2019-04-07T08:48:55.302Z,97575.23
2019-04-07T08:51:22.496Z,97579.55
2019-04-07T08:53:49.624Z,97568.27
2019-04-07T08:56:16.708Z,97569.70
2019-04-07T08:58:43.837Z,97573.26
2019-04-07T09:01:11.010Z,97567.24
2019-04-07T09:03:37.826Z,97573.84
2019-04-07T09:06:05.106Z,97579.50
2019-04-07T09:08:34.670Z,97581.77
2019-04-07T09:11:08.990Z,97585.61
2019-04-07T09:13:36.334Z,97583.52
2019-04-07T09:16:24.698Z,97585.09
2019-04-07T09:19:10.189Z,97590.43
2019-04-07T09:21:42.005Z,97586.75
2019-04-07T09:24:08.315Z,97589.93
2019-04-07T09:26:51.071Z,97585.63
2019-04-07T09:29:32.847Z,97589.62
2019-04-07T09:32:19.266Z,97587.82
2019-04-07T09:34:57.238Z,97585.39
2019-04-07T09:37:38.806Z,97592.03
2019-04-07T09:40:23.563Z,97590.74
2019-04-07T09:42:58.731Z,97590.08
2019-04-07T09:45:32.495Z,97595.19
2019-04-07T09:48:02.177Z,97591.81
2019-04-07T09:50:47.069Z,97590.95
2019-04-07T09:53:28.633Z,97596.47
2019-04-07T09:56:11.931Z,97592.44
2019-04-07T09:58:45.376Z,97605.18
2019-04-07T10:01:19.811Z,97601.33
2019-04-07T10:03:55.396Z,97607.23
2019-04-07T10:06:25.647Z,97604.48
2019-04-07T10:09:11.336Z,97606.12
2019-04-07T10:11:38.550Z,97609.55
2019-04-07T10:14:07.914Z,97608.80
2019-04-07T10:16:39.512Z,97615.61
2019-04-07T10:19:10.959Z,97614.39
2019-04-07T10:21:38.310Z,97613.95
2019-04-07T10:24:13.248Z,97614.87
2019-04-07T10:26:47.332Z,97619.96
2019-04-07T10:29:18.768Z,97619.03
2019-04-07T10:31:58.595Z,97621.91
2019-04-07T10:34:26.002Z,97619.43
2019-04-07T10:37:11.723Z,97620.22
2019-04-07T10:39:56.020Z,97623.05
2019-04-07T10:42:27.237Z,97623.66
2019-04-07T10:44:57.167Z,97622.98
2019-04-07T10:47:30.268Z,97628.50
2019-04-07T10:50:16.888Z,97623.67
2019-04-07T10:52:56.286Z,97623.98
2019-04-07T10:55:25.508Z,97628.05
2019-04-07T10:58:04.390Z,97634.50
2019-04-07T11:00:41.322Z,97630.36
2019-04-07T11:03:08.366Z,97629.03
2019-04-07T11:05:36.284Z,97628.95
2019-04-07T11:08:24.409Z,97628.92
2019-04-07T11:10:56.243Z,97628.41
2019-04-07T11:13:28.937Z,97636.39
2019-04-07T11:16:06.202Z,97626.66
2019-04-07T11:18:36.410Z,97627.66
2019-04-07T11:21:06.200Z,97621.84
2019-04-07T11:23:45.262Z,97619.61
2019-04-07T11:26:33.201Z,97628.53
2019-04-07T11:29:04.375Z,97622.31
2019-04-07T11:31:37.071Z,97620.67
2019-04-07T11:34:25.433Z,97621.41
2019-04-07T11:37:12.180Z,97623.51
2019-04-07T11:39:44.643Z,97628.42
2019-04-07T11:42:18.479Z,97626.80
2019-04-07T11:45:05.043Z,97616.77
2019-04-07T11:47:38.064Z,97627.29
2019-04-07T11:50:27.970Z,97623.30
2019-04-07T11:52:57.267Z,97624.05
2019-04-07T11:55:44.263Z,97625.57
2019-04-07T11:58:30.456Z,97624.69
2019-04-07T12:00:58.213Z,97623.20
2019-04-07T12:03:42.909Z,97625.59
2019-04-07T12:06:17.066Z,97628.41
2019-04-07T12:08:51.116Z,97627.39
2019-04-07T12:11:21.304Z,97622.20
2019-04-07T12:13:52.568Z,97625.24
2019-04-07T12:16:28.683Z,97618.78
2019-04-07T12:19:04.496Z,97617.15
2019-04-07T12:21:37.187Z,97613.53
2019-04-07T12:24:12.333Z,97618.73
2019-04-07T12:26:43.632Z,97625.48
2019-04-07T12:29:14.202Z,97630.55
2019-04-07T12:32:02.372Z,97632.73
2019-04-07T12:37:44.575Z,97632.06
2019-04-07T12:40:22.337Z,97631.45
2019-04-07T12:43:02.586Z,97626.27
2019-04-07T12:45:49.367Z,97616.71
2019-04-07T12:48:36.280Z,97621.54
2019-04-07T12:51:24.657Z,97618.83
2019-04-07T12:54:09.486Z,97616.34
2019-04-07T12:56:57.750Z,97614.49
2019-04-07T12:59:34.708Z,97610.32
2019-04-07T13:02:09.326Z,97614.48
2019-04-07T13:04:50.596Z,97611.33
2019-04-07T13:07:38.718Z,97608.64
2019-04-07T13:10:22.386Z,97605.40
2019-04-07T13:12:55.809Z,97606.47
2019-04-07T13:15:24.824Z,97608.36
2019-04-07T13:17:53.699Z,97606.42
2019-04-07T13:20:26.716Z,97612.67
2019-04-07T13:23:01.554Z,97611.22
2019-04-07T13:25:47.415Z,97607.83
2019-04-07T13:28:16.749Z,97608.15
2019-04-07T13:30:45.660Z,97614.67
2019-04-07T13:33:28.403Z,97612.54
2019-04-07T13:35:59.464Z,97612.78
2019-04-07T13:38:45.765Z,97608.63
2019-04-07T13:41:24.002Z,97607.80
2019-04-07T13:44:12.980Z,97602.09
2019-04-07T13:46:44.466Z,97607.81
2019-04-07T13:49:43.047Z,97618.15
2019-04-07T13:52:19.287Z,97611.28
2019-04-07T13:54:47.268Z,97616.20
2019-04-07T13:57:26.464Z,97614.68
2019-04-07T13:59:57.810Z,97621.12
2019-04-07T14:02:30.206Z,97620.34
2019-04-07T14:05:04.872Z,97626.20
2019-04-07T14:07:35.206Z,97627.63
2019-04-07T14:10:11.332Z,97616.64
2019-04-07T14:12:42.235Z,97624.31
2019-04-07T14:15:21.624Z,97625.86
2019-04-07T14:18:04.830Z,97624.48
2019-04-07T14:20:38.785Z,97619.88
2019-04-07T14:23:25.274Z,97621.33
2019-04-07T14:25:54.898Z,97627.71
2019-04-07T14:28:28.742Z,97627.80
2019-04-07T14:31:12.804Z,97623.42
2019-04-07T14:34:02.200Z,97626.53
2019-04-07T14:36:48.180Z,97628.45
2019-04-07T14:39:17.570Z,97628.14
2019-04-07T14:42:03.954Z,97625.88
2019-04-07T14:44:30.416Z,97624.66
2019-04-07T14:46:58.156Z,97623.10
2019-04-07T14:49:51.566Z,97629.25
2019-04-07T14:52:31.831Z,97623.77
2019-04-07T14:55:20.606Z,97623.20
2019-04-07T14:57:50.257Z,97628.52
2019-04-07T15:00:18.348Z,97629.75
2019-04-07T15:02:46.616Z,97627.62
2019-04-07T15:05:22.180Z,97629.22
2019-04-07T15:07:59.499Z,97629.40
2019-04-07T15:10:31.734Z,97626.34
2019-04-07T15:13:05.356Z,97623.30
2019-04-07T15:15:35.727Z,97614.97
2019-04-07T15:18:03.790Z,97622.95
2019-04-07T15:20:31.157Z,97619.16
2019-04-07T15:22:59.917Z,97623.89
2019-04-07T15:25:28.822Z,97619.38
2019-04-07T15:27:58.900Z,97619.48
2019-04-07T15:30:26.498Z,97618.33
2019-04-07T15:32:57.706Z,97622.43
2019-04-07T15:35:24.359Z,97622.63
2019-04-07T15:37:52.459Z,97627.58
2019-04-07T15:40:20.374Z,97630.05
2019-04-07T15:42:50.700Z,97629.81
2019-04-07T15:45:20.579Z,97628.16
2019-04-07T15:47:51.321Z,97633.77
2019-04-07T15:50:18.087Z,97635.05
2019-04-07T15:52:46.969Z,97633.27
2019-04-07T15:55:18.871Z,97631.52
2019-04-07T15:57:46.756Z,97640.95
2019-04-07T16:00:16.531Z,97643.63
2019-04-07T16:02:44.389Z,97646.53
2019-04-07T16:05:11.743Z,97642.36
2019-04-07T16:07:42.054Z,97646.86
2019-04-07T16:10:10.115Z,97646.80
2019-04-07T16:12:44.564Z,97650.27
2019-04-07T16:15:11.259Z,97652.80
2019-04-07T16:17:41.292Z,97654.48
2019-04-07T16:20:19.915Z,97656.13
2019-04-07T16:22:51.898Z,97656.69
2019-04-07T16:25:19.646Z,97662.55
2019-04-07T16:27:47.665Z,97668.16
2019-04-07T16:30:16.474Z,97667.11
2019-04-07T16:32:44.965Z,97668.19
2019-04-07T16:35:15.580Z,97670.67
2019-04-07T16:37:43.812Z,97668.77
2019-04-07T16:40:13.033Z,97679.29
2019-04-07T16:42:40.490Z,97683.17
2019-04-07T16:45:13.773Z,97679.00
2019-04-07T16:47:38.950Z,97685.67
2019-04-07T16:50:07.621Z,97683.66
2019-04-07T16:52:36.428Z,97689.48
2019-04-07T16:55:09.273Z,97685.13
2019-04-07T16:57:37.414Z,97688.58
2019-04-07T17:00:14.380Z,97689.01
2019-04-07T17:02:42.779Z,97691.16
2019-04-07T17:05:10.080Z,97695.25
2019-04-07T17:07:37.048Z,97696.78
2019-04-07T17:10:05.007Z,97704.13
2019-04-07T17:12:32.349Z,97706.52
2019-04-07T17:15:00.169Z,97703.03
2019-04-07T17:17:28.169Z,97712.61
2019-04-07T17:19:59.491Z,97709.14
2019-04-07T17:22:27.228Z,97712.59
2019-04-07T17:24:58.220Z,97718.35
2019-04-07T17:27:24.839Z,97720.22
2019-04-07T17:29:55.048Z,97722.95
2019-04-07T17:32:23.128Z,97729.14
2019-04-07T17:34:50.887Z,97731.39
2019-04-07T17:37:20.089Z,97732.39
2019-04-07T17:40:04.523Z,97729.56
2019-04-07T17:42:32.349Z,97732.80
2019-04-07T17:44:59.634Z,97734.73
2019-04-07T17:47:29.574Z,97744.13
2019-04-07T17:50:09.259Z,97746.43
2019-04-07T17:52:40.457Z,97744.63
2019-04-07T17:55:08.144Z,97748.34
2019-04-07T17:57:53.494Z,97747.69
2019-04-07T18:00:42.568Z,97747.75
2019-04-07T18:03:21.621Z,97754.19
2019-04-07T18:06:05.865Z,97752.02
2019-04-07T18:08:36.206Z,97752.94
2019-04-07T18:11:14.297Z,97759.04
2019-04-07T18:13:49.900Z,97759.14
2019-04-07T18:16:21.324Z,97765.61
2019-04-07T18:19:06.812Z,97762.09
2019-04-07T18:21:53.870Z,97768.37
2019-04-07T18:24:30.830Z,97778.30
2019-04-07T18:27:19.505Z,97787.19
2019-04-07T18:29:55.166Z,97786.23
2019-04-07T18:32:28.632Z,97789.88
2019-04-07T18:35:04.190Z,97795.92
2019-04-07T18:37:52.786Z,97797.77
2019-04-07T18:40:26.292Z,97798.82
2019-04-07T18:42:54.506Z,97801.47
2019-04-07T18:45:31.902Z,97798.19
2019-04-07T18:48:18.114Z,97807.84
2019-04-07T18:51:07.974Z,97812.84
2019-04-07T18:53:53.189Z,97814.10
2019-04-07T18:56:34.632Z,97822.64
2019-04-07T18:59:04.293Z,97825.14
2019-04-07T19:01:51.065Z,97833.91
2019-04-07T19:04:38.106Z,97831.73
2019-04-07T19:07:07.823Z,97833.55
2019-04-07T19:09:47.703Z,97834.13
2019-04-07T19:12:22.994Z,97839.83
2019-04-07T19:15:08.219Z,97837.20
2019-04-07T19:17:32.657Z,97840.73
2019-04-07T19:20:23.813Z,97841.87
2019-04-07T19:22:54.062Z,97838.36
2019-04-07T19:25:42.642Z,97836.89
2019-04-07T19:28:23.198Z,97845.52
2019-04-07T19:31:04.447Z,97849.05
2019-04-07T19:33:49.405Z,97855.19
2019-04-07T19:36:30.580Z,97854.83
2019-04-07T19:39:02.784Z,97852.34
2019-04-07T19:41:45.418Z,97851.80
2019-04-07T19:44:38.502Z,97857.59
2019-04-07T19:47:04.639Z,97857.03
2019-04-07T19:49:37.460Z,97856.12
2019-04-07T19:52:23.488Z,97859.09
2019-04-07T19:55:08.892Z,97859.77
2019-04-07T19:57:48.402Z,97857.73
2019-04-07T20:00:30.959Z,97863.86
2019-04-07T20:03:17.812Z,97859.43
2019-04-07T20:06:09.932Z,97868.64
2019-04-07T20:08:40.071Z,97866.44
2019-04-07T20:11:09.814Z,97866.34
2019-04-07T20:13:40.978Z,97867.35
2019-04-07T20:16:28.334Z,97870.53
2019-04-07T20:18:59.478Z,97868.71
2019-04-07T20:21:39.050Z,97871.89
2019-04-07T20:24:07.364Z,97874.16
2019-04-07T20:26:42.685Z,97877.92
2019-04-07T20:29:31.082Z,97878.60
2019-04-07T20:32:05.172Z,97877.34
2019-04-07T20:34:37.437Z,97877.80
2019-04-07T20:37:12.872Z,97879.05
2019-04-07T20:39:43.459Z,97874.84
2019-04-07T20:42:23.583Z,97877.11
2019-04-07T20:45:16.259Z,97868.48
2019-04-07T20:47:51.336Z,97875.39
2019-04-07T20:50:26.284Z,97877.66
2019-04-07T20:53:08.370Z,97881.41
2019-04-07T20:55:41.264Z,97879.46
2019-04-07T20:58:23.871Z,97879.69
2019-04-07T21:00:59.683Z,97879.69
2019-04-07T21:03:40.417Z,97883.53
2019-04-07T21:06:12.636Z,97884.43
2019-04-07T21:08:41.946Z,97888.52
2019-04-07T21:11:13.586Z,97888.74
2019-04-07T21:13:43.047Z,97896.35
2019-04-07T21:16:10.562Z,97901.89
2019-04-07T21:18:40.285Z,97898.94
2019-04-07T21:21:11.935Z,97901.08
2019-04-07T21:23:43.333Z,97897.32
2019-04-07T21:26:15.512Z,97893.02
2019-04-07T21:28:44.412Z,97890.75
2019-04-07T21:31:20.414Z,97898.47
2019-04-07T21:33:55.875Z,97895.75
2019-04-07T21:36:28.594Z,97886.45
2019-04-07T21:39:16.233Z,97896.20
2019-04-07T21:41:45.188Z,97891.78
2019-04-07T21:44:27.011Z,97893.57
2019-04-07T21:47:04.326Z,97888.66
2019-04-07T21:49:34.752Z,97885.70
2019-04-07T21:52:05.407Z,97886.47
2019-04-07T21:54:42.999Z,97896.55
2019-04-07T21:57:15.147Z,97891.13
2019-04-07T21:59:52.173Z,97889.75
2019-04-07T22:02:27.447Z,97893.83
2019-04-07T22:04:57.022Z,97887.72
2019-04-07T22:07:27.658Z,97886.68
2019-04-07T22:10:03.843Z,97893.02
2019-04-07T22:12:32.564Z,97893.66
2019-04-07T22:15:00.334Z,97896.30
2019-04-07T22:17:27.693Z,97892.77
2019-04-07T22:19:55.069Z,97897.19
2019-04-07T22:22:24.089Z,97900.23
2019-04-07T22:24:51.559Z,97898.81
2019-04-07T22:27:22.644Z,97902.31
2019-04-07T22:29:48.982Z,97900.14
2019-04-07T22:32:19.240Z,97902.95
2019-04-07T22:34:46.114Z,97902.48
2019-04-07T22:37:15.572Z,97907.92
2019-04-07T22:39:42.258Z,97907.34
2019-04-07T22:42:12.807Z,97903.04
2019-04-07T22:44:38.587Z,97901.80
2019-04-07T22:47:07.011Z,97905.33
2019-04-07T22:49:37.692Z,97903.06
2019-04-07T22:52:06.514Z,97908.30
2019-04-07T22:54:34.925Z,97902.84
2019-04-07T22:57:02.875Z,97910.41
2019-04-07T22:59:30.197Z,97909.86
2019-04-07T23:01:58.048Z,97912.15
2019-04-07T23:04:25.842Z,97920.83
2019-04-07T23:06:52.878Z,97922.62
2019-04-07T23:09:19.691Z,97922.62
2019-04-07T23:11:47.035Z,97924.56
2019-04-07T23:14:14.582Z,97930.66
2019-04-07T23:16:42.261Z,97933.27
2019-04-07T23:19:09.615Z,97930.11
2019-04-07T23:21:38.298Z,97939.40
2019-04-07T23:24:05.522Z,97930.11
2019-04-07T23:26:32.574Z,97933.17
2019-04-07T23:28:59.527Z,97935.78
2019-04-07T23:31:27.887Z,97935.70
2019-04-07T23:33:56.537Z,97933.64
2019-04-07T23:36:24.245Z,97936.91
2019-04-07T23:38:51.960Z,97933.17
2019-04-07T23:41:20.178Z,97932.14
2019-04-07T23:43:47.807Z,97931.12
2019-04-07T23:46:23.172Z,97932.56
2019-04-07T23:48:47.604Z,97938.55
2019-04-07T23:51:14.501Z,97942.39
2019-04-07T23:54:08.998Z,97939.20
2019-04-07T23:56:39.424Z,97935.83
2019-04-07T23:59:08.073Z,97931.61
